createdAt,value
2019-05-15T00:00:28.920Z,10.15
2019-05-15T00:01:28.654Z,10.19
2019-05-15T00:02:28.202Z,10.13
2019-05-15T00:03:28.873Z,10.05
2019-05-15T00:04:28.237Z,10.13
2019-05-15T00:05:29.170Z,10.13
2019-05-15T00:06:28.694Z,10.09
2019-05-15T00:07:29.442Z,10.10
2019-05-15T00:08:28.838Z,10.07
2019-05-15T00:09:28.719Z,10.10
2019-05-15T00:10:28.831Z,9.95
2019-05-15T00:11:28.871Z,9.97
2019-05-15T00:12:28.611Z,10.05
2019-05-15T00:13:28.450Z,9.99
2019-05-15T00:14:28.930Z,9.94
2019-05-15T00:15:28.423Z,9.98
2019-05-15T00:16:29.096Z,9.99
2019-05-15T00:17:28.453Z,9.98
2019-05-15T00:18:28.473Z,9.91
2019-05-15T00:19:28.573Z,9.97
2019-05-15T00:20:29.450Z,9.89
2019-05-15T00:21:28.903Z,9.91
2019-05-15T00:22:29.165Z,9.87
2019-05-15T00:23:29.157Z,9.87
2019-05-15T00:24:28.846Z,9.86
2019-05-15T00:25:28.588Z,9.86
2019-05-15T00:26:30.061Z,9.89
2019-05-15T00:27:28.655Z,9.86
2019-05-15T00:28:28.645Z,9.84
2019-05-15T00:29:29.004Z,9.76
2019-05-15T00:30:29.028Z,9.86
2019-05-15T00:31:29.231Z,9.83
2019-05-15T00:32:28.705Z,9.76
2019-05-15T00:33:28.761Z,9.68
2019-05-15T00:34:28.740Z,9.76
2019-05-15T00:35:30.730Z,9.74
2019-05-15T00:36:28.773Z,9.68
2019-05-15T00:37:28.960Z,9.66
2019-05-15T00:38:28.794Z,9.74
2019-05-15T00:39:28.814Z,9.62
2019-05-15T00:40:28.943Z,9.66
2019-05-15T00:41:28.846Z,9.59
2019-05-15T00:42:28.860Z,9.56
2019-05-15T00:43:29.228Z,9.61
2019-05-15T00:44:28.894Z,9.59
2019-05-15T00:45:28.912Z,9.58
2019-05-15T00:46:29.127Z,9.54
2019-05-15T00:47:28.953Z,9.46
2019-05-15T00:48:29.362Z,9.61
2019-05-15T00:49:29.117Z,9.51
2019-05-15T00:50:28.997Z,9.51
2019-05-15T00:51:29.012Z,9.46
2019-05-15T00:52:29.029Z,9.43
2019-05-15T00:53:29.045Z,9.48
2019-05-15T00:54:29.059Z,9.46
2019-05-15T00:55:29.083Z,9.44
2019-05-15T00:56:29.093Z,9.47
2019-05-15T00:57:29.111Z,9.44
2019-05-15T00:58:29.130Z,9.41
2019-05-15T00:59:30.074Z,9.43
2019-05-15T01:00:29.161Z,9.29
2019-05-15T01:01:29.181Z,9.31
2019-05-15T01:02:29.191Z,9.39
2019-05-15T01:03:29.210Z,9.40
2019-05-15T01:04:29.227Z,9.29
2019-05-15T01:05:29.242Z,9.32
2019-05-15T01:06:29.259Z,9.28
2019-05-15T01:07:29.425Z,9.34
2019-05-15T01:08:29.291Z,9.23
2019-05-15T01:09:29.362Z,9.21
2019-05-15T01:10:29.325Z,9.23
2019-05-15T01:11:29.345Z,9.22
2019-05-15T01:12:29.356Z,9.16
2019-05-15T01:13:29.372Z,9.19
2019-05-15T01:14:29.400Z,9.13
2019-05-15T01:15:29.413Z,9.19
2019-05-15T01:16:29.422Z,9.16
2019-05-15T01:17:29.440Z,9.21
2019-05-15T01:18:29.456Z,9.13
2019-05-15T01:19:29.481Z,9.10
2019-05-15T01:20:29.490Z,9.08
2019-05-15T01:21:29.503Z,9.14
2019-05-15T01:22:29.519Z,9.03
2019-05-15T01:23:29.538Z,9.11
2019-05-15T01:24:29.553Z,9.08
2019-05-15T01:25:29.568Z,9.02
2019-05-15T01:26:29.588Z,8.99
2019-05-15T01:27:29.603Z,8.92
2019-05-15T01:28:29.622Z,9.03
2019-05-15T01:29:40.534Z,8.88
2019-05-15T01:30:29.653Z,8.89
2019-05-15T01:31:29.667Z,8.88
2019-05-15T01:32:29.683Z,8.89
2019-05-15T01:33:29.701Z,8.89
2019-05-15T01:34:29.718Z,8.91
2019-05-15T01:35:29.734Z,8.81
2019-05-15T01:36:29.750Z,8.82
2019-05-15T01:37:29.766Z,8.82
2019-05-15T01:38:29.780Z,8.84
2019-05-15T01:39:29.796Z,8.82
2019-05-15T01:40:29.816Z,8.82
2019-05-15T01:41:29.832Z,8.70
2019-05-15T01:42:29.847Z,8.81
2019-05-15T01:43:29.866Z,8.71
2019-05-15T01:44:29.879Z,8.71
2019-05-15T01:45:29.902Z,8.73
2019-05-15T01:46:29.911Z,8.67
2019-05-15T01:47:29.928Z,8.69
2019-05-15T01:48:29.949Z,8.70
2019-05-15T01:49:29.958Z,8.66
2019-05-15T01:50:29.979Z,8.67
2019-05-15T01:51:29.997Z,8.64
2019-05-15T01:52:30.008Z,8.69
2019-05-15T01:53:30.023Z,8.63
2019-05-15T01:54:30.047Z,8.56
2019-05-15T01:55:30.064Z,8.53
2019-05-15T01:56:30.073Z,8.67
2019-05-15T01:57:30.087Z,8.61
2019-05-15T01:58:30.103Z,8.63
2019-05-15T01:59:30.120Z,8.66
2019-05-15T02:00:30.142Z,8.69
2019-05-15T02:01:30.160Z,8.63
2019-05-15T02:02:30.170Z,8.63
2019-05-15T02:03:30.187Z,8.56
2019-05-15T02:04:30.204Z,8.58
2019-05-15T02:05:30.215Z,8.49
2019-05-15T02:06:30.236Z,8.36
2019-05-15T02:07:30.250Z,8.34
2019-05-15T02:08:30.265Z,8.34
2019-05-15T02:09:30.279Z,8.33
2019-05-15T02:10:30.298Z,8.31
2019-05-15T02:11:30.315Z,8.36
2019-05-15T02:12:30.337Z,8.28
2019-05-15T02:13:30.344Z,8.31
2019-05-15T02:14:30.360Z,8.27
2019-05-15T02:15:30.380Z,8.20
2019-05-15T02:16:30.396Z,8.23
2019-05-15T02:17:30.417Z,8.20
2019-05-15T02:18:30.424Z,8.28
2019-05-15T02:19:30.444Z,8.30
2019-05-15T02:20:30.460Z,8.20
2019-05-15T02:21:30.474Z,8.24
2019-05-15T02:22:30.489Z,8.33
2019-05-15T02:23:30.512Z,8.20
2019-05-15T02:24:30.521Z,8.16
2019-05-15T02:25:30.536Z,8.26
2019-05-15T02:26:30.553Z,8.15
2019-05-15T02:27:30.569Z,8.18
2019-05-15T02:28:30.586Z,8.16
2019-05-15T02:29:30.615Z,8.09
2019-05-15T02:30:34.069Z,8.10
2019-05-15T02:31:30.636Z,8.13
2019-05-15T02:32:30.655Z,8.08
2019-05-15T02:33:30.669Z,8.10
2019-05-15T02:34:30.683Z,8.09
2019-05-15T02:35:30.700Z,8.10
2019-05-15T02:36:30.717Z,8.10
2019-05-15T02:37:30.734Z,8.03
2019-05-15T02:38:30.744Z,8.06
2019-05-15T02:39:30.775Z,8.00
2019-05-15T02:40:30.782Z,8.05
2019-05-15T02:41:30.801Z,8.01
2019-05-15T02:42:30.814Z,8.03
2019-05-15T02:43:30.824Z,8.01
2019-05-15T02:44:30.842Z,8.08
2019-05-15T02:45:30.858Z,7.91
2019-05-15T02:46:30.871Z,7.95
2019-05-15T02:47:30.891Z,8.05
2019-05-15T02:48:30.907Z,7.98
2019-05-15T02:49:30.920Z,7.94
2019-05-15T02:50:30.956Z,7.95
2019-05-15T02:51:30.952Z,7.94
2019-05-15T02:52:30.968Z,7.95
2019-05-15T02:53:30.983Z,7.98
2019-05-15T02:54:31.004Z,7.94
2019-05-15T02:55:31.016Z,7.97
2019-05-15T02:56:31.031Z,8.01
2019-05-15T02:57:31.049Z,7.95
2019-05-15T02:58:31.063Z,7.94
2019-05-15T02:59:31.082Z,7.93
2019-05-15T03:00:42.461Z,7.87
2019-05-15T03:01:31.111Z,7.88
2019-05-15T03:02:31.125Z,7.93
2019-05-15T03:03:31.143Z,7.83
2019-05-15T03:04:31.157Z,7.98
2019-05-15T03:05:31.182Z,7.95
2019-05-15T03:06:31.187Z,7.93
2019-05-15T03:07:31.212Z,7.93
2019-05-15T03:08:31.224Z,8.01
2019-05-15T03:09:31.237Z,7.85
2019-05-15T03:10:31.251Z,7.80
2019-05-15T03:11:31.269Z,7.79
2019-05-15T03:12:31.288Z,7.82
2019-05-15T03:13:31.311Z,7.83
2019-05-15T03:14:31.314Z,7.75
2019-05-15T03:15:31.331Z,7.85
2019-05-15T03:16:31.354Z,7.82
2019-05-15T03:17:31.364Z,7.79
2019-05-15T03:18:31.386Z,7.80
2019-05-15T03:19:31.395Z,7.83
2019-05-15T03:20:31.409Z,7.90
2019-05-15T03:21:31.426Z,7.85
2019-05-15T03:22:31.446Z,7.85
2019-05-15T03:23:31.459Z,7.83
2019-05-15T03:24:31.472Z,7.76
2019-05-15T03:25:31.487Z,7.82
2019-05-15T03:26:31.505Z,7.76
2019-05-15T03:27:34.801Z,7.80
2019-05-15T03:28:31.544Z,7.69
2019-05-15T03:29:31.547Z,7.70
2019-05-15T03:30:35.107Z,7.70
2019-05-15T03:31:48.757Z,7.73
2019-05-15T03:32:40.904Z,7.66
2019-05-15T03:33:36.531Z,7.61
2019-05-15T03:34:38.335Z,7.66
2019-05-15T03:35:33.193Z,7.60
2019-05-15T03:36:32.355Z,7.63
2019-05-15T03:37:33.574Z,7.60
2019-05-15T03:38:31.692Z,7.60
2019-05-15T03:39:31.708Z,7.61
2019-05-15T03:40:31.722Z,7.48
2019-05-15T03:41:31.745Z,7.60
2019-05-15T03:42:31.759Z,7.67
2019-05-15T03:43:31.771Z,7.67
2019-05-15T03:44:31.785Z,7.61
2019-05-15T03:45:31.807Z,7.60
2019-05-15T03:46:31.821Z,7.63
2019-05-15T03:47:31.832Z,7.63
2019-05-15T03:48:31.848Z,7.50
2019-05-15T03:49:31.879Z,7.45
2019-05-15T03:50:31.887Z,7.66
2019-05-15T03:51:31.895Z,7.63
2019-05-15T03:52:31.912Z,7.66
2019-05-15T03:53:31.927Z,7.58
2019-05-15T03:54:31.946Z,7.60
2019-05-15T03:55:31.957Z,7.56
2019-05-15T03:56:31.982Z,7.54
2019-05-15T03:57:31.988Z,7.63
2019-05-15T03:58:32.005Z,7.60
2019-05-15T03:59:32.021Z,7.61
2019-05-15T04:00:32.035Z,7.63
2019-05-15T04:01:38.790Z,7.67
2019-05-15T04:02:32.068Z,7.61
2019-05-15T04:03:32.090Z,7.66
2019-05-15T04:04:32.097Z,7.66
2019-05-15T04:05:32.116Z,7.67
2019-05-15T04:06:32.132Z,7.67
2019-05-15T04:07:32.148Z,7.66
2019-05-15T04:08:32.162Z,7.60
2019-05-15T04:09:32.183Z,7.63
2019-05-15T04:10:32.193Z,7.58
2019-05-15T04:11:32.208Z,7.57
2019-05-15T04:12:32.222Z,7.66
2019-05-15T04:13:32.237Z,7.58
2019-05-15T04:14:32.254Z,7.54
2019-05-15T04:15:32.272Z,7.60
2019-05-15T04:16:32.288Z,7.67
2019-05-15T04:17:32.308Z,7.76
2019-05-15T04:18:32.332Z,7.72
2019-05-15T04:19:32.350Z,7.85
2019-05-15T04:20:32.350Z,7.85
2019-05-15T04:21:32.367Z,7.77
2019-05-15T04:22:32.382Z,7.87
2019-05-15T04:23:32.398Z,7.85
2019-05-15T04:24:32.417Z,7.80
2019-05-15T04:25:32.430Z,7.85
2019-05-15T04:26:32.446Z,7.83
2019-05-15T04:27:32.459Z,7.83
2019-05-15T04:28:32.480Z,7.82
2019-05-15T04:29:32.491Z,7.82
2019-05-15T04:30:32.507Z,7.83
2019-05-15T04:31:50.329Z,7.93
2019-05-15T04:32:32.539Z,7.91
2019-05-15T04:33:32.563Z,7.93
2019-05-15T04:34:32.571Z,7.88
2019-05-15T04:35:32.600Z,7.90
2019-05-15T04:36:32.606Z,7.95
2019-05-15T04:37:32.618Z,7.98
2019-05-15T04:38:32.632Z,8.05
2019-05-15T04:39:32.653Z,8.06
2019-05-15T04:40:32.664Z,8.16
2019-05-15T04:41:32.692Z,8.20
2019-05-15T04:42:32.695Z,8.18
2019-05-15T04:43:41.357Z,8.23
2019-05-15T04:44:32.729Z,8.26
2019-05-15T04:45:35.137Z,8.31
2019-05-15T04:46:32.759Z,8.26
2019-05-15T04:47:32.778Z,8.31
2019-05-15T04:48:32.799Z,8.41
2019-05-15T04:49:32.808Z,8.30
2019-05-15T04:50:32.822Z,8.41
2019-05-15T04:51:32.837Z,8.33
2019-05-15T04:52:32.854Z,8.34
2019-05-15T04:53:33.496Z,8.38
2019-05-15T04:54:32.886Z,8.46
2019-05-15T04:55:32.920Z,8.51
2019-05-15T04:56:32.918Z,8.52
2019-05-15T04:57:34.285Z,8.44
2019-05-15T04:58:32.957Z,8.52
2019-05-15T04:59:32.967Z,8.53
2019-05-15T05:00:32.987Z,8.56
2019-05-15T05:01:32.998Z,8.58
2019-05-15T05:02:33.020Z,8.56
2019-05-15T05:03:34.655Z,8.64
2019-05-15T05:04:33.045Z,8.67
2019-05-15T05:05:33.063Z,8.76
2019-05-15T05:06:33.077Z,8.73
2019-05-15T05:07:33.105Z,8.69
2019-05-15T05:08:33.123Z,8.67
2019-05-15T05:09:33.123Z,8.81
2019-05-15T05:10:33.146Z,8.87
2019-05-15T05:11:33.157Z,8.79
2019-05-15T05:12:33.473Z,8.88
2019-05-15T05:13:33.190Z,8.79
2019-05-15T05:14:33.207Z,8.81
2019-05-15T05:15:33.225Z,8.91
2019-05-15T05:16:33.238Z,8.88
2019-05-15T05:17:33.252Z,8.97
2019-05-15T05:18:33.278Z,8.85
2019-05-15T05:19:33.285Z,8.84
2019-05-15T05:20:33.301Z,9.02
2019-05-15T05:21:33.316Z,8.97
2019-05-15T05:22:33.334Z,9.02
2019-05-15T05:23:33.351Z,9.03
2019-05-15T05:24:33.373Z,9.18
2019-05-15T05:25:33.383Z,9.11
2019-05-15T05:26:33.405Z,9.04
2019-05-15T05:27:33.414Z,9.14
2019-05-15T05:28:33.430Z,9.21
2019-05-15T05:29:33.452Z,9.25
2019-05-15T05:30:33.465Z,9.22
2019-05-15T05:31:33.487Z,9.26
2019-05-15T05:32:35.142Z,9.25
2019-05-15T05:33:33.511Z,9.23
2019-05-15T05:34:33.529Z,9.36
2019-05-15T05:35:33.545Z,9.31
2019-05-15T05:36:33.560Z,9.44
2019-05-15T05:37:33.585Z,9.37
2019-05-15T05:38:33.592Z,9.54
2019-05-15T05:39:33.611Z,9.56
2019-05-15T05:40:33.632Z,9.68
2019-05-15T05:41:33.643Z,9.72
2019-05-15T05:42:33.665Z,9.74
2019-05-15T05:43:33.676Z,9.89
2019-05-15T05:44:33.693Z,10.04
2019-05-15T05:45:33.707Z,10.22
2019-05-15T05:46:33.724Z,10.33
2019-05-15T05:47:33.741Z,10.44
2019-05-15T05:48:33.758Z,10.38
2019-05-15T05:49:33.780Z,10.42
2019-05-15T05:50:33.791Z,10.54
2019-05-15T05:51:33.808Z,10.57
2019-05-15T05:52:33.833Z,10.64
2019-05-15T05:53:33.842Z,10.53
2019-05-15T05:54:33.860Z,10.63
2019-05-15T05:55:33.895Z,10.44
2019-05-15T05:56:33.896Z,10.42
2019-05-15T05:57:33.913Z,10.40
2019-05-15T05:58:33.933Z,10.33
2019-05-15T05:59:33.953Z,10.35
2019-05-15T06:00:33.964Z,10.41
2019-05-15T06:01:37.011Z,10.41
2019-05-15T06:02:44.685Z,10.31
2019-05-15T06:03:34.019Z,10.31
2019-05-15T06:04:34.041Z,10.49
2019-05-15T06:05:34.054Z,10.59
2019-05-15T06:06:34.069Z,10.57
2019-05-15T06:07:35.465Z,10.57
2019-05-15T06:08:34.107Z,10.46
2019-05-15T06:09:34.130Z,10.57
2019-05-15T06:10:34.395Z,10.68
2019-05-15T06:11:34.168Z,10.74
2019-05-15T06:12:34.184Z,10.79
2019-05-15T06:13:34.195Z,10.79
2019-05-15T06:14:34.209Z,10.75
2019-05-15T06:15:34.246Z,10.79
2019-05-15T06:16:34.245Z,10.79
2019-05-15T06:17:34.270Z,10.76
2019-05-15T06:18:34.281Z,10.74
2019-05-15T06:19:34.297Z,10.82
2019-05-15T06:20:34.316Z,10.72
2019-05-15T06:21:34.332Z,10.76
2019-05-15T06:22:34.350Z,10.69
2019-05-15T06:23:36.127Z,10.72
2019-05-15T06:24:34.387Z,10.76
2019-05-15T06:25:34.411Z,10.72
2019-05-15T06:26:34.424Z,10.74
2019-05-15T06:27:34.440Z,10.74
2019-05-15T06:28:34.456Z,10.75
2019-05-15T06:29:34.479Z,10.78
2019-05-15T06:30:34.500Z,10.89
2019-05-15T06:31:34.508Z,10.86
2019-05-15T06:32:34.531Z,10.89
2019-05-15T06:33:34.545Z,10.78
2019-05-15T06:34:34.563Z,10.82
2019-05-15T06:35:34.580Z,10.71
2019-05-15T06:36:34.596Z,10.78
2019-05-15T06:37:34.622Z,10.87
2019-05-15T06:38:34.634Z,10.89
2019-05-15T06:39:34.655Z,10.93
2019-05-15T06:40:34.670Z,10.89
2019-05-15T06:41:34.733Z,10.97
2019-05-15T06:42:34.707Z,11.02
2019-05-15T06:43:34.725Z,11.10
2019-05-15T06:44:34.736Z,11.11
2019-05-15T06:45:34.753Z,11.12
2019-05-15T06:46:34.776Z,11.05
2019-05-15T06:47:34.790Z,11.05
2019-05-15T06:48:34.812Z,11.04
2019-05-15T06:49:34.831Z,11.12
2019-05-15T06:50:34.844Z,11.19
2019-05-15T06:51:34.860Z,11.25
2019-05-15T06:52:34.878Z,11.33
2019-05-15T06:53:34.892Z,11.36
2019-05-15T06:54:34.911Z,11.36
2019-05-15T06:55:34.931Z,11.22
2019-05-15T06:56:34.949Z,11.37
2019-05-15T06:57:34.964Z,11.35
2019-05-15T06:58:34.984Z,11.23
2019-05-15T06:59:35.003Z,11.22
2019-05-15T07:00:35.019Z,11.22
2019-05-15T07:01:35.036Z,11.25
2019-05-15T07:02:35.053Z,11.35
2019-05-15T07:03:35.071Z,11.47
2019-05-15T07:04:35.089Z,11.30
2019-05-15T07:05:35.106Z,11.37
2019-05-15T07:06:35.121Z,11.55
2019-05-15T07:07:35.140Z,11.69
2019-05-15T07:08:35.160Z,11.95
2019-05-15T07:09:35.175Z,12.00
2019-05-15T07:10:35.200Z,12.04
2019-05-15T07:11:35.212Z,12.29
2019-05-15T07:12:35.228Z,12.29
2019-05-15T07:13:35.247Z,12.22
2019-05-15T07:14:35.268Z,12.22
2019-05-15T07:15:35.289Z,12.37
2019-05-15T07:16:35.311Z,12.47
2019-05-15T07:17:35.319Z,12.54
2019-05-15T07:18:35.338Z,12.62
2019-05-15T07:19:35.355Z,12.60
2019-05-15T07:20:35.387Z,12.64
2019-05-15T07:21:38.524Z,12.83
2019-05-15T07:22:35.410Z,13.00
2019-05-15T07:23:35.438Z,12.94
2019-05-15T07:24:35.450Z,12.94
2019-05-15T07:25:35.466Z,12.91
2019-05-15T07:26:35.489Z,12.85
2019-05-15T07:27:35.505Z,12.82
2019-05-15T07:28:37.832Z,12.72
2019-05-15T07:29:35.546Z,12.61
2019-05-15T07:30:35.565Z,12.61
2019-05-15T07:31:35.584Z,12.47
2019-05-15T07:32:35.604Z,12.39
2019-05-15T07:33:40.387Z,12.61
2019-05-15T07:34:37.714Z,12.49
2019-05-15T07:35:38.261Z,12.67
2019-05-15T07:36:35.681Z,12.53
2019-05-15T07:37:35.701Z,12.58
2019-05-15T07:38:35.718Z,12.90
2019-05-15T07:39:38.067Z,12.93
2019-05-15T07:40:38.306Z,13.03
2019-05-15T07:41:35.783Z,13.09
2019-05-15T07:42:38.310Z,13.05
2019-05-15T07:43:38.247Z,13.11
2019-05-15T07:44:38.632Z,13.05
2019-05-15T07:45:42.617Z,13.12
2019-05-15T07:46:38.110Z,13.04
2019-05-15T07:47:38.330Z,13.09
2019-05-15T07:48:38.120Z,13.12
2019-05-15T07:49:35.934Z,13.09
2019-05-15T07:50:38.456Z,13.15
2019-05-15T07:51:38.173Z,13.25
2019-05-15T07:52:36.008Z,13.31
2019-05-15T07:53:38.407Z,13.11
2019-05-15T07:54:38.162Z,13.11
2019-05-15T07:55:39.086Z,13.03
2019-05-15T07:56:38.023Z,13.09
2019-05-15T07:57:38.906Z,13.09
2019-05-15T07:58:38.419Z,13.23
2019-05-15T07:59:38.517Z,13.46
2019-05-15T08:00:39.308Z,13.42
2019-05-15T08:01:38.433Z,13.54
2019-05-15T08:02:37.974Z,13.62
2019-05-15T08:03:47.133Z,13.67
2019-05-15T08:04:38.103Z,13.62
2019-05-15T08:05:39.476Z,13.72
2019-05-15T08:06:38.826Z,13.67
2019-05-15T08:07:38.626Z,13.63
2019-05-15T08:08:36.299Z,13.71
2019-05-15T08:09:36.317Z,13.63
2019-05-15T08:10:36.338Z,13.75
2019-05-15T08:11:38.849Z,13.74
2019-05-15T08:12:38.910Z,13.90
2019-05-15T08:13:38.287Z,13.47
2019-05-15T08:14:38.791Z,13.49
2019-05-15T08:15:38.139Z,13.70
2019-05-15T08:16:39.259Z,13.74
2019-05-15T08:17:56.041Z,13.86
2019-05-15T08:18:36.494Z,13.79
2019-05-15T08:19:38.351Z,13.56
2019-05-15T08:20:38.479Z,13.57
2019-05-15T08:21:38.532Z,13.65
2019-05-15T08:22:38.362Z,13.59
2019-05-15T08:23:38.889Z,13.56
2019-05-15T08:24:38.916Z,13.47
2019-05-15T08:25:38.760Z,13.59
2019-05-15T08:26:37.987Z,13.57
2019-05-15T08:27:38.282Z,13.50
2019-05-15T08:28:38.240Z,13.47
2019-05-15T08:29:38.302Z,13.39
2019-05-15T08:30:38.795Z,13.41
2019-05-15T08:31:38.864Z,13.60
2019-05-15T08:32:38.723Z,13.65
2019-05-15T08:33:38.819Z,13.79
2019-05-15T08:34:38.656Z,13.78
2019-05-15T08:35:38.691Z,14.04
2019-05-15T08:36:38.531Z,14.22
2019-05-15T08:37:38.435Z,14.04
2019-05-15T08:38:38.409Z,13.79
2019-05-15T08:39:38.158Z,13.49
2019-05-15T08:40:41.080Z,13.57
2019-05-15T08:41:38.847Z,13.59
2019-05-15T08:42:41.717Z,13.67
2019-05-15T08:43:38.223Z,13.77
2019-05-15T08:44:38.688Z,13.87
2019-05-15T08:45:39.136Z,13.89
2019-05-15T08:46:38.773Z,13.90
2019-05-15T08:47:38.619Z,13.74
2019-05-15T08:48:38.366Z,13.87
2019-05-15T08:49:40.966Z,13.97
2019-05-15T08:50:39.006Z,14.00
2019-05-15T08:51:38.143Z,13.92
2019-05-15T08:52:39.417Z,13.60
2019-05-15T08:53:37.981Z,13.65
2019-05-15T08:54:38.287Z,13.62
2019-05-15T08:55:39.090Z,13.77
2019-05-15T08:56:39.418Z,13.90
2019-05-15T08:57:38.355Z,14.03
2019-05-15T08:58:38.154Z,14.12
2019-05-15T08:59:38.161Z,14.22
2019-05-15T09:00:40.133Z,14.15
2019-05-15T09:01:38.228Z,14.20
2019-05-15T09:02:38.270Z,14.15
2019-05-15T09:03:38.085Z,14.00
2019-05-15T09:04:38.660Z,14.05
2019-05-15T09:05:38.822Z,14.12
2019-05-15T09:06:41.297Z,14.07
2019-05-15T09:07:38.330Z,14.17
2019-05-15T09:08:38.998Z,14.11
2019-05-15T09:09:38.357Z,14.14
2019-05-15T09:10:38.505Z,14.29
2019-05-15T09:11:39.291Z,14.50
2019-05-15T09:12:38.762Z,14.50
2019-05-15T09:13:43.107Z,14.65
2019-05-15T09:14:38.088Z,14.86
2019-05-15T09:15:39.512Z,14.62
2019-05-15T09:16:38.714Z,14.50
2019-05-15T09:17:39.811Z,14.63
2019-05-15T09:18:39.133Z,14.68
2019-05-15T09:19:38.804Z,14.84
2019-05-15T09:20:38.367Z,14.94
2019-05-15T09:21:38.776Z,14.99
2019-05-15T09:22:38.386Z,14.79
2019-05-15T09:23:38.836Z,14.54
2019-05-15T09:24:37.968Z,14.45
2019-05-15T09:25:39.012Z,14.48
2019-05-15T09:26:40.507Z,14.50
2019-05-15T09:27:38.409Z,14.60
2019-05-15T09:28:39.028Z,14.65
2019-05-15T09:29:38.170Z,14.58
2019-05-15T09:30:39.127Z,14.62
2019-05-15T09:31:39.194Z,14.54
2019-05-15T09:32:39.236Z,14.50
2019-05-15T09:33:38.689Z,14.63
2019-05-15T09:34:47.769Z,14.55
2019-05-15T09:35:39.387Z,14.41
2019-05-15T09:36:42.241Z,14.54
2019-05-15T09:37:38.719Z,14.59
2019-05-15T09:38:39.047Z,14.51
2019-05-15T09:39:38.203Z,14.50
2019-05-15T09:40:45.633Z,14.41
2019-05-15T09:41:38.140Z,14.51
2019-05-15T09:42:38.797Z,14.47
2019-05-15T09:43:38.928Z,14.53
2019-05-15T09:44:39.182Z,14.37
2019-05-15T09:45:38.271Z,14.40
2019-05-15T09:46:38.428Z,14.69
2019-05-15T09:47:39.606Z,14.59
2019-05-15T09:48:39.080Z,14.63
2019-05-15T09:49:39.148Z,14.86
2019-05-15T09:50:39.672Z,14.84
2019-05-15T09:51:38.625Z,14.72
2019-05-15T09:52:38.984Z,14.77
2019-05-15T09:53:39.518Z,14.88
2019-05-15T09:54:38.857Z,14.94
2019-05-15T09:55:38.385Z,14.82
2019-05-15T09:56:38.637Z,14.72
2019-05-15T09:57:38.823Z,14.77
2019-05-15T09:58:38.443Z,14.48
2019-05-15T09:59:39.100Z,14.78
2019-05-15T10:00:38.719Z,14.63
2019-05-15T10:01:39.521Z,14.60
2019-05-15T10:02:39.376Z,14.81
2019-05-15T10:03:39.088Z,15.04
2019-05-15T10:04:39.070Z,15.24
2019-05-15T10:05:38.910Z,15.37
2019-05-15T10:06:39.211Z,15.59
2019-05-15T10:07:40.412Z,15.65
2019-05-15T10:08:39.828Z,15.62
2019-05-15T10:09:38.997Z,15.70
2019-05-15T10:10:38.654Z,15.64
2019-05-15T10:11:38.677Z,15.62
2019-05-15T10:12:38.888Z,15.40
2019-05-15T10:13:38.733Z,15.10
2019-05-15T10:14:38.782Z,15.17
2019-05-15T10:15:39.090Z,15.14
2019-05-15T10:16:38.774Z,15.17
2019-05-15T10:17:38.803Z,15.02
2019-05-15T10:18:39.251Z,14.82
2019-05-15T10:19:38.842Z,14.85
2019-05-15T10:20:38.866Z,15.22
2019-05-15T10:21:40.018Z,15.25
2019-05-15T10:22:38.892Z,15.42
2019-05-15T10:23:40.435Z,15.25
2019-05-15T10:24:38.937Z,15.35
2019-05-15T10:25:39.067Z,15.37
2019-05-15T10:26:39.451Z,15.37
2019-05-15T10:27:39.861Z,15.35
2019-05-15T10:28:39.399Z,15.55
2019-05-15T10:29:39.032Z,15.67
2019-05-15T10:30:39.573Z,15.88
2019-05-15T10:31:39.102Z,15.80
2019-05-15T10:32:39.710Z,15.90
2019-05-15T10:33:39.496Z,15.90
2019-05-15T10:34:39.134Z,15.79
2019-05-15T10:35:39.458Z,15.72
2019-05-15T10:36:39.172Z,15.70
2019-05-15T10:37:39.226Z,15.82
2019-05-15T10:38:39.413Z,15.67
2019-05-15T10:39:39.232Z,15.68
2019-05-15T10:40:44.522Z,15.90
2019-05-15T10:41:39.271Z,15.79
2019-05-15T10:42:40.007Z,15.83
2019-05-15T10:43:46.279Z,15.79
2019-05-15T10:44:39.355Z,15.72
2019-05-15T10:45:42.151Z,15.42
2019-05-15T10:46:39.372Z,15.22
2019-05-15T10:47:39.399Z,15.28
2019-05-15T10:48:39.419Z,15.36
2019-05-15T10:49:39.438Z,15.57
2019-05-15T10:50:39.462Z,15.70
2019-05-15T10:51:39.876Z,15.73
2019-05-15T10:52:39.500Z,15.79
2019-05-15T10:53:39.517Z,15.72
2019-05-15T10:54:39.549Z,15.80
2019-05-15T10:55:39.745Z,15.90
2019-05-15T10:56:39.574Z,15.94
2019-05-15T10:57:43.254Z,15.98
2019-05-15T10:58:39.617Z,16.08
2019-05-15T10:59:39.637Z,16.16
2019-05-15T11:00:39.657Z,16.17
2019-05-15T11:01:39.680Z,16.33
2019-05-15T11:02:39.699Z,16.31
2019-05-15T11:03:40.181Z,16.35
2019-05-15T11:04:39.736Z,16.31
2019-05-15T11:05:45.363Z,16.38
2019-05-15T11:06:39.775Z,15.98
2019-05-15T11:07:39.796Z,15.79
2019-05-15T11:08:40.582Z,15.84
2019-05-15T11:09:40.655Z,15.67
2019-05-15T11:10:41.817Z,15.61
2019-05-15T11:11:39.877Z,15.58
2019-05-15T11:12:39.897Z,15.82
2019-05-15T11:13:39.918Z,15.86
2019-05-15T11:14:39.935Z,15.84
2019-05-15T11:15:42.558Z,15.68
2019-05-15T11:16:39.981Z,15.70
2019-05-15T11:17:40.002Z,15.91
2019-05-15T11:18:40.278Z,16.01
2019-05-15T11:19:40.803Z,16.16
2019-05-15T11:20:41.352Z,16.29
2019-05-15T11:21:43.376Z,16.29
2019-05-15T11:22:42.992Z,16.24
2019-05-15T11:23:42.627Z,16.26
2019-05-15T11:24:40.138Z,16.28
2019-05-15T11:25:40.160Z,16.17
2019-05-15T11:26:40.191Z,16.15
2019-05-15T11:27:40.204Z,16.00
2019-05-15T11:28:40.249Z,15.92
2019-05-15T11:29:40.244Z,15.97
2019-05-15T11:30:40.270Z,15.83
2019-05-15T11:31:40.283Z,15.67
2019-05-15T11:32:40.306Z,15.68
2019-05-15T11:33:40.322Z,15.70
2019-05-15T11:34:40.342Z,15.73
2019-05-15T11:35:56.419Z,15.86
2019-05-15T11:36:40.384Z,16.04
2019-05-15T11:37:46.002Z,16.10
2019-05-15T11:38:40.426Z,16.15
2019-05-15T11:39:45.593Z,16.17
2019-05-15T11:40:40.468Z,16.29
2019-05-15T11:41:40.488Z,16.32
2019-05-15T11:42:40.501Z,16.31
2019-05-15T11:43:40.524Z,16.31
2019-05-15T11:44:40.543Z,16.32
2019-05-15T11:45:40.561Z,16.32
2019-05-15T11:46:40.584Z,16.23
2019-05-15T11:47:40.650Z,16.29
2019-05-15T11:48:40.623Z,16.16
2019-05-15T11:49:40.644Z,16.13
2019-05-15T11:50:40.664Z,16.31
2019-05-15T11:51:40.686Z,16.09
2019-05-15T11:52:40.780Z,16.26
2019-05-15T11:53:40.723Z,16.23
2019-05-15T11:54:40.789Z,16.26
2019-05-15T11:55:40.768Z,16.26
2019-05-15T11:56:40.788Z,16.38
2019-05-15T11:57:46.723Z,16.33
2019-05-15T11:58:40.833Z,16.35
2019-05-15T11:59:45.034Z,16.47
2019-05-15T12:00:40.867Z,16.64
2019-05-15T12:01:40.888Z,16.50
2019-05-15T12:02:40.909Z,16.47
2019-05-15T12:03:40.928Z,16.16
2019-05-15T12:04:40.948Z,16.10
2019-05-15T12:05:40.969Z,16.13
2019-05-15T12:06:40.994Z,16.29
2019-05-15T12:07:41.011Z,16.49
2019-05-15T12:08:41.031Z,16.47
2019-05-15T12:09:41.052Z,16.53
2019-05-15T12:10:41.071Z,16.66
2019-05-15T12:11:41.380Z,16.54
2019-05-15T12:12:41.113Z,16.47
2019-05-15T12:13:41.138Z,16.56
2019-05-15T12:14:41.156Z,16.29
2019-05-15T12:15:41.182Z,15.97
2019-05-15T12:16:41.305Z,15.98
2019-05-15T12:17:41.213Z,16.04
2019-05-15T12:18:41.236Z,16.28
2019-05-15T12:19:41.255Z,16.17
2019-05-15T12:20:41.275Z,16.13
2019-05-15T12:21:41.325Z,16.28
2019-05-15T12:22:41.317Z,16.31
2019-05-15T12:23:41.336Z,16.41
2019-05-15T12:24:41.399Z,16.15
2019-05-15T12:25:41.377Z,16.20
2019-05-15T12:26:41.397Z,16.15
2019-05-15T12:27:41.465Z,16.12
2019-05-15T12:28:41.447Z,16.13
2019-05-15T12:29:41.461Z,16.32
2019-05-15T12:30:41.487Z,16.46
2019-05-15T12:31:41.639Z,16.56
2019-05-15T12:32:41.560Z,16.58
2019-05-15T12:33:41.539Z,16.74
2019-05-15T12:34:41.576Z,16.71
2019-05-15T12:35:41.585Z,16.65
2019-05-15T12:36:52.136Z,16.72
2019-05-15T12:37:41.623Z,16.93
2019-05-15T12:38:41.645Z,16.69
2019-05-15T12:39:41.672Z,16.58
2019-05-15T12:59:44.584Z,16.58
2019-05-15T13:00:42.110Z,16.61
2019-05-15T13:01:42.120Z,16.75
2019-05-15T13:02:42.141Z,16.84
2019-05-15T13:03:42.161Z,17.08
2019-05-15T13:04:42.187Z,17.11
2019-05-15T13:05:42.201Z,17.12
2019-05-15T13:06:49.531Z,17.15
2019-05-15T13:07:42.246Z,16.99
2019-05-15T13:08:42.263Z,17.06
2019-05-15T13:09:42.287Z,16.87
2019-05-15T13:10:42.308Z,16.96
2019-05-15T13:11:42.326Z,16.75
2019-05-15T13:12:55.621Z,16.97
2019-05-15T13:13:42.375Z,17.12
2019-05-15T13:14:42.388Z,17.16
2019-05-15T13:15:42.411Z,17.26
2019-05-15T13:16:42.431Z,17.42
2019-05-15T13:17:42.455Z,17.45
2019-05-15T13:18:42.472Z,17.54
2019-05-15T13:19:42.496Z,17.39
2019-05-15T13:20:42.529Z,17.54
2019-05-15T13:21:42.534Z,17.59
2019-05-15T13:22:42.557Z,17.78